Time;durP1;ratioP1;P1;durP2;ratioP2;P2;SDS_P1;SDS_P2;PMS_P1;PMS_P2;Temp;Humidity;BMP_temperature;BMP_pressure;BME280_temperature;BME280_humidity;BME280_pressure;Samples;Min_cycle;Max_cycle;Signal;HPM_P1;HPM_P2
2023/07/23 00:01:58;;;;;;;5.25;2.92;;;21.80;1.00;;;;;;4841204;29;20041;-45
2023/07/23 00:04:25;;;;;;;6.28;2.70;;;21.70;1.00;;;;;;4840842;29;20053;-47
2023/07/23 00:06:52;;;;;;;6.60;2.83;;;21.70;1.00;;;;;;4840533;29;20042;-46
2023/07/23 00:09:19;;;;;;;7.03;3.75;;;21.70;1.00;;;;;;4841578;29;20042;-47
2023/07/23 00:11:46;;;;;;;8.20;4.47;;;21.70;1.00;;;;;;4844291;29;20457;-48
2023/07/23 00:14:13;;;;;;;6.85;2.83;;;21.70;1.00;;;;;;4844043;29;20412;-46
2023/07/23 00:16:40;;;;;;;5.57;2.58;;;21.70;1.00;;;;;;4844039;29;20453;-47
2023/07/23 00:19:07;;;;;;;9.95;2.70;;;21.70;1.00;;;;;;4843731;29;20042;-50
2023/07/23 00:21:34;;;;;;;5.72;3.00;;;21.70;1.00;;;;;;4844245;29;20041;-47
2023/07/23 00:24:04;;;;;;;8.25;4.05;;;21.70;1.00;;;;;;4843840;29;20580;-44
2023/07/23 00:26:31;;;;;;;5.20;2.55;;;21.70;1.00;;;;;;4843704;29;20556;-44
2023/07/23 00:28:58;;;;;;;4.82;2.58;;;21.70;1.00;;;;;;4843340;29;20074;-45
2023/07/23 00:31:25;;;;;;;6.38;3.58;;;21.70;1.00;;;;;;4842610;29;20101;-46
2023/07/23 00:33:52;;;;;;;6.00;2.63;;;21.70;1.00;;;;;;4857872;29;20098;-46
2023/07/23 00:36:19;;;;;;;9.52;3.70;;;21.70;1.00;;;;;;4843562;29;20500;-46
2023/07/23 00:38:46;;;;;;;5.88;2.80;;;21.70;1.00;;;;;;4842031;29;20145;-47
2023/07/23 00:41:14;;;;;;;6.53;3.13;;;21.70;1.00;;;;;;4843511;29;20564;-45
2023/07/23 00:43:41;;;;;;;6.40;2.70;;;21.70;1.00;;;;;;4842158;29;20073;-44
2023/07/23 00:46:09;;;;;;;5.55;2.95;;;21.70;1.00;;;;;;4842182;29;20145;-43
2023/07/23 00:48:36;;;;;;;5.15;2.58;;;21.70;1.00;;;;;;4857332;29;20053;-44
2023/07/23 00:51:03;;;;;;;7.85;3.60;;;21.60;1.00;;;;;;4843386;29;20038;-44
2023/07/23 00:53:30;;;;;;;8.23;3.03;;;21.70;1.00;;;;;;4843441;29;20408;-44
2023/07/23 00:55:58;;;;;;;6.20;3.22;;;21.60;1.00;;;;;;4857484;29;20466;-48
2023/07/23 00:58:25;;;;;;;7.85;3.10;;;21.60;1.00;;;;;;4841820;29;20420;-44
2023/07/23 01:00:52;;;;;;;6.90;3.13;;;21.70;1.00;;;;;;4843258;29;20038;-47
2023/07/23 01:03:20;;;;;;;4.95;2.20;;;21.60;1.00;;;;;;4843034;29;20119;-44
2023/07/23 01:05:49;;;;;;;6.45;3.50;;;21.60;1.00;;;;;;4839164;29;20223;-43
2023/07/23 01:08:16;;;;;;;5.53;2.63;;;21.60;1.00;;;;;;4851400;29;20141;-44
2023/07/23 01:10:43;;;;;;;6.53;3.45;;;21.60;1.00;;;;;;4830754;29;20054;-44
2023/07/23 01:13:11;;;;;;;5.35;2.70;;;21.60;1.00;;;;;;4843925;29;20132;-46
2023/07/23 01:15:38;;;;;;;4.95;2.28;;;21.60;1.00;;;;;;4843267;29;20085;-44
2023/07/23 01:18:05;;;;;;;7.03;2.70;;;21.60;1.00;;;;;;4842883;29;20445;-44
2023/07/23 01:20:32;;;;;;;8.27;2.85;;;21.60;1.00;;;;;;4841168;29;20038;-45
2023/07/23 01:22:59;;;;;;;3.97;2.58;;;21.60;1.00;;;;;;4842636;29;20449;-46
2023/07/23 01:25:26;;;;;;;6.35;2.60;;;21.60;1.00;;;;;;4842804;29;20417;-45
2023/07/23 01:27:52;;;;;;;6.28;2.75;;;21.60;1.00;;;;;;4842678;29;20046;-46
2023/07/23 01:30:19;;;;;;;6.07;4.13;;;21.60;1.00;;;;;;4841442;29;20129;-46
2023/07/23 01:32:47;;;;;;;7.85;3.22;;;21.60;1.00;;;;;;4841529;29;20042;-44
2023/07/23 01:35:16;;;;;;;7.10;2.45;;;21.60;1.00;;;;;;4856706;29;20054;-45
2023/07/23 01:37:47;;;;;;;4.85;2.63;;;21.60;1.00;;;;;;4841261;29;20133;-44
2023/07/23 01:40:15;;;;;;;6.75;3.03;;;21.60;1.00;;;;;;4842494;29;20052;-44
2023/07/23 01:42:44;;;;;;;6.53;2.67;;;21.50;1.00;;;;;;4841189;29;20098;-44
2023/07/23 01:45:13;;;;;;;6.78;2.80;;;21.50;1.00;;;;;;4841179;29;20317;-45
2023/07/23 01:47:40;;;;;;;8.13;3.00;;;21.60;1.00;;;;;;4840879;29;20042;-45
2023/07/23 01:50:08;;;;;;;6.28;3.00;;;21.50;1.00;;;;;;4841093;29;20060;-44
2023/07/23 01:52:35;;;;;;;4.20;2.08;;;21.60;1.00;;;;;;4841439;29;20433;-45
2023/07/23 01:55:02;;;;;;;7.13;3.25;;;21.50;1.00;;;;;;4841130;29;20468;-46
2023/07/23 01:57:28;;;;;;;7.32;2.75;;;21.50;1.00;;;;;;4840588;29;20053;-46
2023/07/23 01:59:55;;;;;;;5.38;2.55;;;21.50;1.00;;;;;;4841012;29;20050;-44
2023/07/23 02:02:22;;;;;;;8.10;2.90;;;21.50;1.00;;;;;;4840959;29;20611;-44
2023/07/23 02:04:49;;;;;;;7.68;3.53;;;21.50;1.00;;;;;;4840797;29;20099;-45
2023/07/23 02:07:16;;;;;;;3.45;1.70;;;21.50;1.00;;;;;;4840395;29;20045;-48
2023/07/23 02:09:43;;;;;;;5.63;2.47;;;21.50;1.00;;;;;;4840881;29;20068;-46
2023/07/23 02:12:10;;;;;;;6.30;3.08;;;21.50;1.00;;;;;;4856103;29;20081;-46
2023/07/23 02:14:37;;;;;;;9.20;2.95;;;21.50;1.00;;;;;;4840538;29;20519;-44
2023/07/23 02:17:04;;;;;;;6.80;2.95;;;21.50;1.00;;;;;;4840700;29;20553;-45
2023/07/23 02:19:31;;;;;;;8.90;2.38;;;21.50;1.00;;;;;;4840522;29;20050;-46
2023/07/23 02:21:58;;;;;;;5.78;3.13;;;21.50;1.00;;;;;;4840850;29;20049;-44
2023/07/23 02:24:25;;;;;;;9.55;4.13;;;21.50;1.00;;;;;;4840450;29;20057;-45
2023/07/23 02:26:52;;;;;;;5.38;3.30;;;21.50;1.00;;;;;;4841643;29;20460;-48
2023/07/23 02:29:19;;;;;;;6.82;3.00;;;21.50;1.00;;;;;;4841652;29;20071;-48
2023/07/23 02:31:46;;;;;;;6.40;3.22;;;21.50;1.00;;;;;;4840398;29;20057;-47
2023/07/23 02:34:13;;;;;;;5.93;3.20;;;21.50;1.00;;;;;;4840276;29;20045;-45
2023/07/23 02:36:39;;;;;;;7.97;2.78;;;21.50;1.00;;;;;;4840264;29;20065;-50
2023/07/23 02:39:06;;;;;;;7.70;3.30;;;21.40;1.00;;;;;;4840295;29;20050;-46
2023/07/23 02:41:33;;;;;;;6.90;2.70;;;21.40;1.00;;;;;;4840177;29;20046;-47
2023/07/23 02:44:00;;;;;;;6.35;2.95;;;21.40;1.00;;;;;;4841472;29;20040;-44
2023/07/23 02:46:27;;;;;;;4.40;3.00;;;21.50;1.00;;;;;;4841609;29;20042;-49
2023/07/23 02:48:54;;;;;;;5.53;2.67;;;21.50;1.00;;;;;;4855423;29;20136;-48
2023/07/23 02:51:21;;;;;;;6.85;3.22;;;21.40;1.00;;;;;;4840024;29;20597;-45
2023/07/23 02:53:52;;;;;;;6.32;3.47;;;21.40;1.00;;;;;;4840301;29;20074;-45
2023/07/23 02:56:19;;;;;;;5.68;2.75;;;21.40;1.00;;;;;;4830284;29;20078;-47
2023/07/23 02:58:46;;;;;;;7.72;3.58;;;21.40;1.00;;;;;;4834891;29;20098;-47
2023/07/23 03:01:13;;;;;;;7.30;3.67;;;21.40;1.00;;;;;;4839877;29;20045;-48
2023/07/23 03:03:40;;;;;;;7.72;3.22;;;21.40;1.00;;;;;;4840068;29;20134;-46
2023/07/23 03:06:08;;;;;;;9.15;4.03;;;21.40;1.00;;;;;;4841110;29;20038;-46
2023/07/23 03:08:35;;;;;;;7.32;2.92;;;21.40;1.00;;;;;;4841082;29;20094;-48
2023/07/23 03:11:04;;;;;;;7.63;3.28;;;21.40;1.00;;;;;;4855214;29;20050;-46
2023/07/23 03:13:31;;;;;;;8.75;3.25;;;21.40;1.00;;;;;;4827259;29;20038;-45
2023/07/23 03:16:01;;;;;;;7.85;3.22;;;21.40;1.00;;;;;;4832655;29;20057;-44
2023/07/23 03:18:28;;;;;;;6.65;3.30;;;21.40;1.00;;;;;;4839974;29;20132;-43
2023/07/23 03:20:55;;;;;;;6.95;3.60;;;21.40;1.00;;;;;;4839825;29;20129;-43
2023/07/23 03:23:22;;;;;;;6.95;2.85;;;21.40;1.00;;;;;;4839774;29;20046;-43
2023/07/23 03:25:49;;;;;;;7.57;3.13;;;21.40;1.00;;;;;;4839639;29;20512;-44
2023/07/23 03:28:16;;;;;;;4.95;2.53;;;21.40;1.00;;;;;;4839408;29;20053;-47
2023/07/23 03:30:42;;;;;;;6.72;3.28;;;21.40;1.00;;;;;;4840935;29;20057;-44
2023/07/23 03:33:09;;;;;;;7.13;3.63;;;21.40;1.00;;;;;;4839719;29;20058;-45
2023/07/23 03:35:36;;;;;;;5.60;3.00;;;21.40;1.00;;;;;;4841065;29;20412;-45
2023/07/23 03:38:03;;;;;;;9.45;3.78;;;21.40;1.00;;;;;;4839452;29;20048;-46
2023/07/23 03:40:30;;;;;;;5.68;3.05;;;21.40;1.00;;;;;;4825007;29;20053;-44
2023/07/23 03:42:56;;;;;;;10.02;3.60;;;21.40;1.00;;;;;;4839638;29;20137;-46
2023/07/23 03:45:23;;;;;;;5.63;2.80;;;21.40;1.00;;;;;;4834524;29;20141;-44
2023/07/23 03:47:50;;;;;;;6.45;2.92;;;21.30;1.00;;;;;;4843051;29;20050;-44
2023/07/23 03:50:17;;;;;;;7.13;3.05;;;21.30;1.00;;;;;;4844547;29;20069;-45
2023/07/23 03:52:45;;;;;;;6.75;2.88;;;21.30;1.00;;;;;;4843226;29;20046;-48
2023/07/23 03:55:13;;;;;;;8.05;3.45;;;21.30;1.00;;;;;;4844258;29;20041;-47
2023/07/23 03:57:40;;;;;;;7.60;3.38;;;21.40;1.00;;;;;;4842787;29;20473;-45
2023/07/23 04:00:09;;;;;;;7.85;3.10;;;21.30;1.00;;;;;;4844327;29;20503;-44
2023/07/23 04:02:38;;;;;;;6.28;3.38;;;21.30;1.00;;;;;;4844430;29;20045;-44
2023/07/23 04:05:05;;;;;;;5.07;3.35;;;21.30;1.00;;;;;;4842845;29;20053;-47
2023/07/23 04:07:32;;;;;;;7.40;3.35;;;21.30;1.00;;;;;;4844229;29;20373;-43
2023/07/23 04:09:59;;;;;;;5.05;2.53;;;21.30;1.00;;;;;;4844190;29;20575;-45
2023/07/23 04:12:26;;;;;;;8.93;3.35;;;21.30;1.00;;;;;;4844201;29;20462;-48
2023/07/23 04:14:53;;;;;;;7.47;3.88;;;21.30;1.00;;;;;;4844073;29;20048;-47
2023/07/23 04:17:20;;;;;;;6.70;3.63;;;21.30;1.00;;;;;;4843558;29;20476;-47
2023/07/23 04:19:47;;;;;;;6.22;3.08;;;21.30;1.00;;;;;;4844209;29;20449;-45
2023/07/23 04:22:14;;;;;;;7.72;3.30;;;21.30;1.00;;;;;;4843377;29;20046;-50
2023/07/23 04:24:40;;;;;;;8.40;4.15;;;21.30;1.00;;;;;;4841777;29;20058;-45
2023/07/23 04:27:07;;;;;;;9.43;3.50;;;21.30;1.00;;;;;;4843405;29;20128;-46
2023/07/23 04:29:34;;;;;;;7.47;3.65;;;21.30;1.00;;;;;;4842366;29;20520;-46
2023/07/23 04:32:01;;;;;;;6.35;3.15;;;21.30;1.00;;;;;;4843798;29;20046;-43
2023/07/23 04:34:28;;;;;;;6.18;2.88;;;21.30;1.00;;;;;;4842331;29;20052;-49
2023/07/23 04:36:55;;;;;;;5.32;3.13;;;21.30;1.00;;;;;;4842136;29;20077;-44
2023/07/23 04:39:21;;;;;;;6.13;3.03;;;21.30;1.00;;;;;;4842481;29;20050;-45
2023/07/23 04:41:48;;;;;;;7.57;3.53;;;21.30;1.00;;;;;;4842338;29;20057;-44
2023/07/23 04:44:15;;;;;;;8.45;3.00;;;21.30;1.00;;;;;;4842236;29;20046;-45
2023/07/23 04:46:42;;;;;;;5.32;2.90;;;21.30;1.00;;;;;;4842171;29;20046;-48
2023/07/23 04:49:09;;;;;;;6.63;3.80;;;21.30;1.00;;;;;;4843001;29;20038;-46
2023/07/23 04:51:35;;;;;;;8.93;3.20;;;21.30;1.00;;;;;;4842324;29;20046;-46
2023/07/23 04:54:02;;;;;;;5.35;2.65;;;21.30;1.00;;;;;;4842999;29;20399;-45
2023/07/23 04:56:29;;;;;;;6.13;3.55;;;21.30;1.00;;;;;;4841799;29;20076;-45
2023/07/23 04:58:56;;;;;;;5.68;2.67;;;21.20;1.00;;;;;;4842509;29;20053;-45
2023/07/23 05:01:23;;;;;;;6.38;3.10;;;21.20;1.00;;;;;;4842762;29;20045;-44
2023/07/23 05:03:50;;;;;;;4.75;2.95;;;21.20;1.00;;;;;;4842285;29;20042;-45
2023/07/23 05:06:17;;;;;;;6.05;2.95;;;21.20;1.00;;;;;;4842406;29;20121;-44
2023/07/23 05:08:43;;;;;;;7.13;3.05;;;21.30;1.00;;;;;;4842826;29;20046;-48
2023/07/23 05:11:10;;;;;;;6.38;2.53;;;21.20;1.00;;;;;;4842641;29;20058;-46
2023/07/23 05:13:37;;;;;;;5.45;2.92;;;21.20;1.00;;;;;;4840189;29;20493;-45
2023/07/23 05:16:04;;;;;;;5.68;2.83;;;21.30;1.00;;;;;;4839470;29;20098;-47
2023/07/23 05:18:32;;;;;;;3.40;2.17;;;21.20;1.00;;;;;;4842708;29;20434;-50
2023/07/23 05:21:01;;;;;;;6.57;3.15;;;21.20;1.00;;;;;;4842867;29;20121;-46
2023/07/23 05:23:28;;;;;;;6.97;3.42;;;21.30;1.00;;;;;;4842870;29;20081;-46
2023/07/23 05:25:56;;;;;;;5.18;2.95;;;21.20;1.00;;;;;;4842570;29;20128;-51
2023/07/23 05:28:23;;;;;;;4.55;2.65;;;21.20;1.00;;;;;;4842476;29;20046;-44
2023/07/23 05:30:55;;;;;;;5.15;2.78;;;21.20;1.00;;;;;;4842665;29;20505;-48
2023/07/23 05:33:22;;;;;;;4.22;2.35;;;21.20;1.00;;;;;;4842756;29;20079;-44
2023/07/23 05:35:49;;;;;;;5.95;2.78;;;21.20;1.00;;;;;;4842584;29;20042;-49
2023/07/23 05:38:16;;;;;;;7.43;2.95;;;21.20;1.00;;;;;;4842336;29;20049;-46
2023/07/23 05:40:43;;;;;;;7.20;2.85;;;21.20;1.00;;;;;;4842674;29;20400;-45
2023/07/23 05:43:16;;;;;;;8.43;2.80;;;21.20;1.00;;;;;;4842560;29;20042;-45
2023/07/23 05:45:43;;;;;;;7.15;3.47;;;21.20;1.00;;;;;;4842495;29;20068;-45
2023/07/23 05:48:10;;;;;;;4.43;2.67;;;21.20;1.00;;;;;;4842063;29;20050;-45
2023/07/23 05:50:37;;;;;;;3.60;2.55;;;21.20;1.00;;;;;;4842380;29;20050;-45
2023/07/23 05:53:04;;;;;;;6.82;2.85;;;21.20;1.00;;;;;;4842439;29;20046;-44
2023/07/23 05:55:31;;;;;;;5.60;2.80;;;21.20;1.00;;;;;;4842237;29;20038;-47
2023/07/23 05:57:57;;;;;;;5.70;3.10;;;21.20;1.00;;;;;;4842480;29;20438;-47
2023/07/23 06:00:24;;;;;;;6.32;3.33;;;21.20;1.00;;;;;;4842168;29;20397;-45
2023/07/23 06:02:51;;;;;;;6.93;2.78;;;21.20;1.00;;;;;;4842275;29;20037;-44
2023/07/23 06:05:18;;;;;;;5.63;2.97;;;21.20;1.00;;;;;;4842033;29;20073;-46
2023/07/23 06:07:45;;;;;;;5.70;2.67;;;21.20;1.00;;;;;;4841478;29;20046;-48
2023/07/23 06:10:12;;;;;;;5.20;3.22;;;21.20;1.00;;;;;;4842003;29;20125;-49
2023/07/23 06:12:39;;;;;;;4.05;2.33;;;21.20;1.00;;;;;;4829247;29;20039;-47
2023/07/23 06:15:06;;;;;;;6.78;3.22;;;21.20;1.00;;;;;;4814214;29;20112;-45
2023/07/23 06:17:33;;;;;;;4.97;2.40;;;21.20;1.00;;;;;;4819144;29;20043;-46
2023/07/23 06:20:00;;;;;;;6.00;3.20;;;21.20;1.00;;;;;;4824182;29;20042;-46
2023/07/23 06:22:27;;;;;;;6.20;3.15;;;21.20;1.00;;;;;;4841017;29;20046;-47
2023/07/23 06:24:54;;;;;;;6.50;2.65;;;21.20;1.00;;;;;;4839030;29;20042;-46
2023/07/23 06:27:21;;;;;;;3.67;2.38;;;21.20;1.00;;;;;;4823304;29;20534;-49
2023/07/23 06:29:48;;;;;;;7.32;2.65;;;21.20;1.00;;;;;;4831168;29;20350;-49
2023/07/23 06:32:14;;;;;;;4.07;2.65;;;21.20;1.00;;;;;;4817731;29;20129;-44
2023/07/23 06:34:41;;;;;;;5.63;2.30;;;21.20;1.00;;;;;;4812823;29;20470;-49
2023/07/23 06:37:08;;;;;;;6.65;2.15;;;21.20;1.00;;;;;;4819536;29;20525;-48
2023/07/23 06:39:35;;;;;;;5.50;3.58;;;21.20;1.00;;;;;;4818100;29;20051;-48
2023/07/23 06:42:02;;;;;;;5.70;2.92;;;21.20;1.00;;;;;;4820767;29;20066;-51
2023/07/23 06:44:29;;;;;;;5.13;2.63;;;21.10;1.00;;;;;;4815314;29;20046;-48
2023/07/23 06:46:57;;;;;;;6.45;2.83;;;21.10;1.00;;;;;;4818648;29;20045;-47
2023/07/23 06:49:28;;;;;;;11.68;2.15;;;21.20;1.00;;;;;;4817080;29;20065;-48
2023/07/23 06:51:55;;;;;;;4.72;2.92;;;21.10;1.00;;;;;;4818491;29;20065;-44
2023/07/23 06:54:23;;;;;;;8.13;2.97;;;21.20;1.00;;;;;;4822594;29;20053;-46
2023/07/23 06:56:51;;;;;;;4.78;2.08;;;21.20;1.00;;;;;;4819854;29;20046;-47
2023/07/23 06:59:19;;;;;;;5.78;2.83;;;21.20;1.00;;;;;;4817658;29;20108;-48
2023/07/23 07:01:45;;;;;;;6.63;3.28;;;21.20;1.00;;;;;;4819526;29;20125;-46
2023/07/23 07:04:12;;;;;;;7.30;2.72;;;21.20;1.00;;;;;;4815279;29;20129;-44
2023/07/23 07:06:40;;;;;;;5.80;2.75;;;21.20;1.00;;;;;;4820484;29;20493;-49
2023/07/23 07:09:06;;;;;;;5.68;3.08;;;21.20;1.00;;;;;;4820979;29;20121;-46
2023/07/23 07:11:33;;;;;;;7.05;2.83;;;21.10;1.00;;;;;;4813987;29;20082;-46
2023/07/23 07:14:00;;;;;;;6.05;3.15;;;21.20;1.00;;;;;;4816300;29;20141;-44
2023/07/23 07:16:27;;;;;;;7.25;2.55;;;21.10;1.00;;;;;;4812960;29;20043;-48
2023/07/23 07:18:54;;;;;;;6.93;3.10;;;21.10;1.00;;;;;;4816254;29;20054;-45
2023/07/23 07:21:20;;;;;;;7.82;2.85;;;21.10;1.00;;;;;;4819597;29;20062;-50
2023/07/23 07:23:47;;;;;;;8.13;3.25;;;21.20;1.00;;;;;;4818190;29;20050;-49
2023/07/23 07:26:14;;;;;;;7.03;2.03;;;21.10;1.00;;;;;;4816265;29;20133;-49
2023/07/23 07:28:42;;;;;;;6.78;2.58;;;21.20;1.00;;;;;;4820247;29;20040;-48
2023/07/23 07:31:11;;;;;;;11.75;3.20;;;21.20;1.00;;;;;;4817066;29;20103;-45
2023/07/23 07:33:39;;;;;;;16.33;4.60;;;21.20;1.00;;;;;;4819026;29;20125;-48
2023/07/23 07:36:06;;;;;;;7.97;2.80;;;21.20;1.00;;;;;;4818093;29;20099;-44
2023/07/23 07:38:33;;;;;;;6.85;2.63;;;21.20;1.00;;;;;;4821484;29;20061;-45
2023/07/23 07:41:01;;;;;;;4.25;2.25;;;21.20;1.00;;;;;;4830775;29;20073;-46
2023/07/23 07:43:28;;;;;;;8.32;3.10;;;21.10;1.00;;;;;;4819354;29;20104;-48
2023/07/23 07:45:59;;;;;;;7.00;2.00;;;21.20;1.00;;;;;;4819972;29;20042;-44
2023/07/23 07:48:29;;;;;;;5.57;2.60;;;21.20;1.00;;;;;;4817110;29;20039;-48
2023/07/23 07:51:00;;;;;;;6.35;2.75;;;21.20;1.00;;;;;;4815997;29;20042;-46
2023/07/23 07:53:27;;;;;;;8.70;2.22;;;21.20;1.00;;;;;;4827058;29;20130;-50
2023/07/23 07:55:55;;;;;;;6.20;2.67;;;21.20;1.00;;;;;;4815997;29;20046;-46
2023/07/23 07:58:26;;;;;;;8.63;2.80;;;21.10;1.00;;;;;;4811488;29;20401;-46
2023/07/23 08:00:57;;;;;;;5.45;3.10;;;21.20;1.00;;;;;;4815367;29;20129;-46
2023/07/23 08:03:27;;;;;;;5.22;2.05;;;21.20;1.00;;;;;;4823054;29;20107;-47
2023/07/23 08:05:55;;;;;;;5.90;2.40;;;21.10;1.00;;;;;;4840090;29;20049;-46
2023/07/23 08:08:25;;;;;;;7.78;2.35;;;21.20;1.00;;;;;;4819067;29;20562;-49
2023/07/23 08:10:57;;;;;;;9.52;2.47;;;21.10;1.00;;;;;;4821652;29;20043;-51
2023/07/23 08:13:24;;;;;;;13.37;2.93;;;21.10;1.00;;;;;;4838046;29;20073;-49
2023/07/23 08:15:53;;;;;;;6.38;2.72;;;21.10;1.00;;;;;;4840583;29;20046;-51
2023/07/23 08:18:22;;;;;;;5.72;1.88;;;21.20;1.00;;;;;;4840326;29;20045;-51
2023/07/23 08:20:50;;;;;;;9.55;2.38;;;21.10;1.00;;;;;;4840321;29;20385;-48
2023/07/23 08:23:17;;;;;;;4.70;2.30;;;21.10;1.00;;;;;;4840592;29;20053;-51
2023/07/23 08:25:49;;;;;;;8.63;2.47;;;21.10;1.00;;;;;;4838744;29;20560;-45
2023/07/23 08:28:22;;;;;;;6.47;3.67;;;21.10;1.00;;;;;;4816046;29;20046;-48
2023/07/23 08:30:50;;;;;;;7.70;2.90;;;21.10;1.00;;;;;;4821928;29;20039;-46
2023/07/23 08:33:18;;;;;;;6.20;2.33;;;21.10;1.00;;;;;;4818136;29;20411;-50
2023/07/23 08:35:46;;;;;;;5.75;2.40;;;21.10;1.00;;;;;;4824021;29;20378;-45
2023/07/23 08:38:14;;;;;;;11.38;2.55;;;21.10;1.00;;;;;;4821708;29;20110;-46
2023/07/23 08:40:45;;;;;;;7.90;2.72;;;21.10;1.00;;;;;;4820580;29;20051;-44
2023/07/23 08:43:31;;;;;;;6.65;2.58;;;21.10;1.00;;;;;;4819688;29;20042;-45
2023/07/23 08:46:21;;;;;;;9.32;2.28;;;21.10;1.00;;;;;;4816858;29;20126;-44
2023/07/23 08:48:54;;;;;;;10.77;2.80;;;21.10;1.00;;;;;;4817577;29;20386;-45
2023/07/23 08:51:38;;;;;;;5.30;2.05;;;21.10;1.00;;;;;;4824917;29;20462;-45
2023/07/23 08:54:06;;;;;;;5.53;2.10;;;21.10;1.00;;;;;;4831095;29;20050;-44
2023/07/23 08:56:35;;;;;;;6.18;2.60;;;21.10;1.00;;;;;;4820422;29;20513;-45
2023/07/23 08:59:04;;;;;;;10.05;2.13;;;21.10;1.00;;;;;;4824725;29;20095;-45
2023/07/23 09:01:39;;;;;;;10.55;2.70;;;21.10;1.00;;;;;;4824751;29;20050;-45
2023/07/23 09:04:08;;;;;;;5.35;2.03;;;21.10;1.00;;;;;;4829608;29;20170;-47
2023/07/23 09:06:35;;;;;;;8.43;2.55;;;21.10;1.00;;;;;;4824358;29;20069;-45
2023/07/23 09:09:08;;;;;;;6.40;2.47;;;21.10;1.00;;;;;;4824637;29;20045;-44
2023/07/23 09:11:36;;;;;;;8.40;3.03;;;21.10;1.00;;;;;;4824692;29;20539;-45
2023/07/23 09:14:08;;;;;;;9.38;3.05;;;21.10;1.00;;;;;;4824477;29;20046;-44
2023/07/23 09:16:40;;;;;;;13.85;2.22;;;21.10;1.00;;;;;;4824632;29;20050;-44
2023/07/23 09:19:12;;;;;;;8.15;1.90;;;21.10;1.00;;;;;;4824686;29;20058;-45
2023/07/23 09:21:42;;;;;;;6.43;2.60;;;21.10;1.00;;;;;;4824742;29;20409;-46
2023/07/23 09:24:14;;;;;;;6.63;2.70;;;21.10;1.00;;;;;;4820674;29;20038;-44
2023/07/23 09:26:42;;;;;;;8.80;2.10;;;21.10;1.00;;;;;;4819657;29;20042;-45
2023/07/23 09:29:11;;;;;;;6.47;2.38;;;21.10;1.00;;;;;;4816838;29;20055;-45
2023/07/23 09:31:43;;;;;;;6.38;2.58;;;21.10;1.00;;;;;;4821521;29;20047;-44
2023/07/23 09:34:10;;;;;;;18.35;4.25;;;21.10;1.00;;;;;;4822915;29;20050;-45
2023/07/23 09:36:38;;;;;;;3.72;2.22;;;21.10;1.00;;;;;;4824087;29;20051;-44
2023/07/23 09:39:08;;;;;;;9.77;1.80;;;21.10;1.00;;;;;;4824438;29;20065;-44
2023/07/23 09:41:37;;;;;;;7.72;2.40;;;21.10;1.00;;;;;;4824255;29;20074;-45
2023/07/23 09:44:12;;;;;;;8.88;2.72;;;21.10;1.00;;;;;;4835341;29;20041;-46
2023/07/23 09:46:45;;;;;;;5.07;1.45;;;21.10;1.00;;;;;;4816090;29;20054;-45
2023/07/23 09:49:12;;;;;;;;;;;21.10;1.00;;;;;;4814788;29;20050;-45
2023/07/23 09:51:48;;;;;;;5.32;2.10;;;21.10;1.00;;;;;;4817372;29;19939;-45
2023/07/23 09:54:17;;;;;;;4.68;2.28;;;21.10;1.00;;;;;;4825623;29;20062;-45
2023/07/23 09:56:45;;;;;;;6.45;1.73;;;21.10;1.00;;;;;;4818327;29;20153;-46
2023/07/23 09:59:13;;;;;;;5.25;1.90;;;21.10;1.00;;;;;;4815128;29;20054;-46
2023/07/23 10:01:40;;;;;;;9.52;1.90;;;21.10;1.00;;;;;;4815989;29;20095;-44
2023/07/23 10:04:11;;;;;;;9.15;1.45;;;21.10;1.00;;;;;;4816068;29;20051;-45
2023/07/23 10:06:39;;;;;;;6.00;1.90;;;21.10;1.00;;;;;;4816443;29;20043;-44
2023/07/23 10:09:09;;;;;;;6.50;2.40;;;21.10;1.00;;;;;;4816250;29;20042;-44
2023/07/23 10:11:36;;;;;;;4.05;1.48;;;21.10;1.00;;;;;;4816539;29;20053;-45
2023/07/23 10:14:02;;;;;;;8.05;2.58;;;21.10;1.00;;;;;;4817652;29;20046;-46
2023/07/23 10:16:39;;;;;;;4.78;1.65;;;21.10;1.00;;;;;;4811702;29;20126;-45
2023/07/23 10:19:08;;;;;;;3.88;1.55;;;21.10;1.00;;;;;;4812605;29;20141;-46
2023/07/23 10:21:36;;;;;;;4.97;1.15;;;21.10;1.00;;;;;;4814977;29;20180;-45
2023/07/23 10:24:04;;;;;;;6.03;1.50;;;21.10;1.00;;;;;;4816902;29;20045;-45
2023/07/23 10:26:43;;;;;;;6.45;1.48;;;21.10;1.00;;;;;;4814479;29;20061;-49
2023/07/23 10:29:15;;;;;;;3.72;1.30;;;21.10;1.00;;;;;;4819177;29;20455;-48
2023/07/23 10:31:45;;;;;;;7.95;3.42;;;21.10;1.00;;;;;;4826623;29;20050;-45
2023/07/23 10:34:29;;;;;;;3.45;1.45;;;21.10;1.00;;;;;;4822249;29;20054;-47
2023/07/23 10:37:10;;;;;;;6.45;1.23;;;21.20;1.00;;;;;;4823178;29;20046;-50
2023/07/23 10:39:43;;;;;;;9.60;2.67;;;21.10;1.00;;;;;;4835067;29;20046;-45
2023/07/23 10:42:41;;;;;;;3.97;1.13;;;21.10;1.00;;;;;;4822700;29;20046;-45
2023/07/23 10:45:22;;;;;;;3.78;1.90;;;21.20;1.00;;;;;;4817193;29;20701;-49
2023/07/23 10:48:00;;;;;;;5.15;1.60;;;21.20;1.00;;;;;;4822549;29;20050;-49
2023/07/23 10:50:31;;;;;;;4.85;2.13;;;21.10;1.00;;;;;;4823632;29;20071;-48
2023/07/23 10:53:04;;;;;;;5.60;1.48;;;21.10;1.00;;;;;;4822916;29;20046;-46
2023/07/23 10:55:47;;;;;;;5.78;2.33;;;21.10;1.00;;;;;;4811443;29;20123;-46
2023/07/23 10:58:15;;;;;;;;;;;21.10;1.00;;;;;;4815334;29;20543;-50
2023/07/23 11:00:43;;;;;;;7.22;2.38;;;21.10;1.00;;;;;;4821974;29;20263;-47
2023/07/23 11:03:16;;;;;;;6.03;1.80;;;21.20;1.00;;;;;;4814195;29;20078;-44
2023/07/23 11:05:44;;;;;;;5.97;1.63;;;21.10;1.00;;;;;;4816772;29;20053;-45
2023/07/23 11:08:23;;;;;;;8.32;1.80;;;21.20;1.00;;;;;;4822315;29;20046;-49
2023/07/23 11:10:58;;;;;;;6.57;2.72;;;21.20;1.00;;;;;;4821711;29;20042;-45
2023/07/23 11:13:30;;;;;;;6.55;1.65;;;21.20;1.00;;;;;;4821077;29;20108;-50
2023/07/23 11:15:57;;;;;;;4.88;2.38;;;21.20;1.00;;;;;;4817795;29;20832;-45
2023/07/23 11:18:25;;;;;;;8.82;2.38;;;21.20;1.00;;;;;;4815071;29;20123;-47
2023/07/23 11:20:54;;;;;;;10.02;2.33;;;21.20;1.00;;;;;;4815582;29;20047;-49
2023/07/23 11:23:25;;;;;;;7.40;1.83;;;21.20;1.00;;;;;;4817436;29;20129;-49
2023/07/23 11:25:52;;;;;;;4.50;1.70;;;21.20;1.00;;;;;;4816829;29;20125;-43
2023/07/23 11:28:22;;;;;;;5.18;2.00;;;21.20;1.00;;;;;;4817218;29;20149;-46
2023/07/23 11:30:50;;;;;;;8.55;2.58;;;21.20;1.00;;;;;;4816028;29;20039;-47
2023/07/23 11:33:17;;;;;;;9.27;2.45;;;21.30;1.00;;;;;;4817934;29;20115;-46
2023/07/23 11:35:44;;;;;;;11.98;2.92;;;21.30;1.00;;;;;;4815886;29;20133;-45
2023/07/23 11:38:11;;;;;;;11.70;2.75;;;21.30;1.00;;;;;;4825001;29;20152;-45
2023/07/23 11:40:38;;;;;;;4.72;1.75;;;21.30;1.00;;;;;;4812876;29;20247;-48
2023/07/23 11:43:06;;;;;;;7.93;2.15;;;21.30;1.00;;;;;;4820169;29;20133;-47
2023/07/23 11:45:46;;;;;;;10.90;2.38;;;21.30;1.00;;;;;;4816528;29;20049;-49
2023/07/23 11:48:18;;;;;;;8.10;2.90;;;21.40;1.00;;;;;;4820729;29;20062;-49
2023/07/23 11:50:46;;;;;;;8.35;2.50;;;21.40;1.00;;;;;;4817796;29;20392;-46
2023/07/23 11:53:13;;;;;;;8.93;3.65;;;21.30;1.00;;;;;;4811195;29;20133;-48
2023/07/23 11:55:43;;;;;;;8.98;2.75;;;21.40;1.00;;;;;;4815530;29;20442;-52
2023/07/23 11:58:17;;;;;;;13.55;3.28;;;21.40;1.00;;;;;;4820109;29;20050;-48
2023/07/23 12:00:49;;;;;;;10.10;2.88;;;21.40;1.00;;;;;;4830449;29;20050;-47
2023/07/23 12:03:16;;;;;;;10.35;3.00;;;21.40;1.00;;;;;;4840801;29;20050;-50
2023/07/23 12:05:43;;;;;;;5.72;2.95;;;21.40;1.00;;;;;;4841926;29;20102;-48
2023/07/23 12:08:11;;;;;;;7.70;2.25;;;21.40;1.00;;;;;;4843966;29;20116;-51
2023/07/23 12:10:38;;;;;;;8.32;2.53;;;21.40;1.00;;;;;;4844178;29;20484;-48
2023/07/23 12:13:11;;;;;;;9.50;2.55;;;21.40;1.00;;;;;;4844140;29;20056;-49
2023/07/23 12:15:38;;;;;;;7.60;2.53;;;21.40;1.00;;;;;;4843931;29;20064;-46
2023/07/23 12:18:09;;;;;;;6.57;2.42;;;21.40;1.00;;;;;;4843929;29;20475;-48
2023/07/23 12:20:38;;;;;;;8.27;2.25;;;21.40;1.00;;;;;;4844120;29;20133;-46
2023/07/23 12:23:05;;;;;;;10.98;3.97;;;21.40;1.00;;;;;;4844073;29;20377;-47
2023/07/23 12:25:32;;;;;;;9.40;2.75;;;21.50;1.00;;;;;;4843622;29;20046;-47
2023/07/23 12:27:59;;;;;;;12.90;3.05;;;21.50;1.00;;;;;;4835146;29;20114;-51
2023/07/23 12:30:26;;;;;;;9.82;2.33;;;21.50;1.00;;;;;;4827224;29;20501;-50
2023/07/23 12:32:53;;;;;;;8.77;2.40;;;21.50;1.00;;;;;;4820283;29;20123;-47
2023/07/23 12:35:20;;;;;;;12.73;3.03;;;21.50;1.00;;;;;;4824338;29;20050;-50
2023/07/23 12:37:46;;;;;;;9.57;3.45;;;21.50;1.00;;;;;;4818509;29;20130;-50
2023/07/23 12:40:14;;;;;;;8.48;2.30;;;21.50;1.00;;;;;;4824474;29;20051;-45
2023/07/23 12:42:40;;;;;;;11.35;2.83;;;21.50;1.00;;;;;;4825509;29;20046;-46
2023/07/23 12:45:08;;;;;;;10.90;2.65;;;21.50;1.00;;;;;;4825069;29;20134;-45
2023/07/23 12:47:35;;;;;;;5.95;2.58;;;21.50;1.00;;;;;;4839025;29;20523;-45
2023/07/23 12:50:02;;;;;;;9.52;2.88;;;21.50;1.00;;;;;;4833959;29;20070;-49
2023/07/23 12:52:29;;;;;;;11.18;4.10;;;21.50;1.00;;;;;;4838257;29;20046;-49
2023/07/23 12:54:55;;;;;;;9.68;3.03;;;21.50;1.00;;;;;;4842521;29;20050;-47
2023/07/23 12:57:23;;;;;;;7.43;3.33;;;21.60;1.00;;;;;;4832734;29;20055;-51
2023/07/23 12:59:50;;;;;;;14.15;3.90;;;21.60;1.00;;;;;;4821442;29;20058;-47
2023/07/23 13:02:18;;;;;;;9.00;3.13;;;21.60;1.00;;;;;;4819110;29;20134;-46
2023/07/23 13:04:45;;;;;;;12.73;3.78;;;21.60;1.00;;;;;;4824377;29;20137;-46